sensor_id;sensor_type;location;lat;lon;timestamp;P1;durP1;ratioP1;P2;durP2;ratioP2
35993;SDS011;22066;54.274;18.578;2023-04-24T00:01:14;22.95;;;13.52;;
35993;SDS011;22066;54.274;18.578;2023-04-24T00:03:42;23.90;;;13.77;;
35993;SDS011;22066;54.274;18.578;2023-04-24T00:06:08;21.23;;;13.48;;
35993;SDS011;22066;54.274;18.578;2023-04-24T00:08:34;26.75;;;15.05;;
35993;SDS011;22066;54.274;18.578;2023-04-24T00:11:01;22.00;;;13.30;;
35993;SDS011;22066;54.274;18.578;2023-04-24T00:13:27;21.58;;;13.77;;
35993;SDS011;22066;54.274;18.578;2023-04-24T00:15:54;22.02;;;13.88;;
35993;SDS011;22066;54.274;18.578;2023-04-24T00:18:20;26.65;;;13.60;;
35993;SDS011;22066;54.274;18.578;2023-04-24T00:20:46;24.40;;;12.75;;
35993;SDS011;22066;54.274;18.578;2023-04-24T00:23:12;35.47;;;13.75;;
35993;SDS011;22066;54.274;18.578;2023-04-24T00:25:38;26.70;;;13.18;;
35993;SDS011;22066;54.274;18.578;2023-04-24T00:28:05;26.15;;;13.85;;
35993;SDS011;22066;54.274;18.578;2023-04-24T00:30:31;23.98;;;13.75;;
35993;SDS011;22066;54.274;18.578;2023-04-24T00:32:57;22.30;;;14.10;;
35993;SDS011;22066;54.274;18.578;2023-04-24T00:35:23;23.08;;;15.30;;
35993;SDS011;22066;54.274;18.578;2023-04-24T00:37:49;20.58;;;13.05;;
35993;SDS011;22066;54.274;18.578;2023-04-24T00:40:15;22.20;;;14.13;;
35993;SDS011;22066;54.274;18.578;2023-04-24T00:42:41;21.55;;;13.20;;
35993;SDS011;22066;54.274;18.578;2023-04-24T00:45:08;24.27;;;14.38;;
35993;SDS011;22066;54.274;18.578;2023-04-24T00:47:35;25.05;;;13.38;;
35993;SDS011;22066;54.274;18.578;2023-04-24T00:50:04;24.35;;;14.68;;
35993;SDS011;22066;54.274;18.578;2023-04-24T00:52:31;25.63;;;14.40;;
35993;SDS011;22066;54.274;18.578;2023-04-24T00:54:57;22.30;;;14.25;;
35993;SDS011;22066;54.274;18.578;2023-04-24T00:57:23;22.92;;;13.43;;
35993;SDS011;22066;54.274;18.578;2023-04-24T00:59:50;23.95;;;13.50;;
35993;SDS011;22066;54.274;18.578;2023-04-24T01:02:17;23.88;;;13.60;;
35993;SDS011;22066;54.274;18.578;2023-04-24T01:04:43;21.77;;;13.43;;
35993;SDS011;22066;54.274;18.578;2023-04-24T01:07:09;20.83;;;13.57;;
35993;SDS011;22066;54.274;18.578;2023-04-24T01:09:42;22.42;;;13.32;;
35993;SDS011;22066;54.274;18.578;2023-04-24T01:12:12;22.38;;;12.82;;
35993;SDS011;22066;54.274;18.578;2023-04-24T01:14:38;22.08;;;12.65;;
35993;SDS011;22066;54.274;18.578;2023-04-24T01:17:04;23.52;;;14.13;;
35993;SDS011;22066;54.274;18.578;2023-04-24T01:19:30;24.02;;;13.50;;
35993;SDS011;22066;54.274;18.578;2023-04-24T01:21:57;24.63;;;14.18;;
35993;SDS011;22066;54.274;18.578;2023-04-24T01:24:24;24.55;;;14.85;;
35993;SDS011;22066;54.274;18.578;2023-04-24T01:26:50;25.38;;;14.30;;
35993;SDS011;22066;54.274;18.578;2023-04-24T01:29:16;26.70;;;14.02;;
35993;SDS011;22066;54.274;18.578;2023-04-24T01:31:42;27.02;;;14.32;;
35993;SDS011;22066;54.274;18.578;2023-04-24T01:34:08;26.23;;;14.27;;
35993;SDS011;22066;54.274;18.578;2023-04-24T01:36:35;29.50;;;14.30;;
35993;SDS011;22066;54.274;18.578;2023-04-24T01:39:01;29.42;;;14.82;;
35993;SDS011;22066;54.274;18.578;2023-04-24T01:41:28;29.13;;;15.02;;
35993;SDS011;22066;54.274;18.578;2023-04-24T01:43:55;28.02;;;14.45;;
35993;SDS011;22066;54.274;18.578;2023-04-24T01:46:21;28.33;;;14.02;;
35993;SDS011;22066;54.274;18.578;2023-04-24T01:48:48;25.73;;;14.32;;
35993;SDS011;22066;54.274;18.578;2023-04-24T01:51:14;25.70;;;14.50;;
35993;SDS011;22066;54.274;18.578;2023-04-24T01:53:40;29.23;;;14.07;;
35993;SDS011;22066;54.274;18.578;2023-04-24T01:56:06;27.33;;;14.57;;
35993;SDS011;22066;54.274;18.578;2023-04-24T01:58:32;28.05;;;15.10;;
35993;SDS011;22066;54.274;18.578;2023-04-24T02:00:59;24.85;;;14.27;;
35993;SDS011;22066;54.274;18.578;2023-04-24T02:03:25;27.52;;;15.38;;
35993;SDS011;22066;54.274;18.578;2023-04-24T02:05:52;28.23;;;15.45;;
35993;SDS011;22066;54.274;18.578;2023-04-24T02:08:18;27.70;;;14.90;;
35993;SDS011;22066;54.274;18.578;2023-04-24T02:10:44;25.48;;;14.07;;
35993;SDS011;22066;54.274;18.578;2023-04-24T02:13:10;30.15;;;13.98;;
35993;SDS011;22066;54.274;18.578;2023-04-24T02:15:36;27.98;;;13.52;;
35993;SDS011;22066;54.274;18.578;2023-04-24T02:18:02;25.25;;;13.90;;
35993;SDS011;22066;54.274;18.578;2023-04-24T02:20:28;27.35;;;13.10;;
35993;SDS011;22066;54.274;18.578;2023-04-24T02:22:54;27.95;;;14.85;;
35993;SDS011;22066;54.274;18.578;2023-04-24T02:25:20;26.08;;;14.43;;
35993;SDS011;22066;54.274;18.578;2023-04-24T02:27:46;25.10;;;13.77;;
35993;SDS011;22066;54.274;18.578;2023-04-24T02:33:15;26.00;;;13.93;;
35993;SDS011;22066;54.274;18.578;2023-04-24T02:35:42;24.48;;;13.32;;
35993;SDS011;22066;54.274;18.578;2023-04-24T02:38:08;25.15;;;13.45;;
35993;SDS011;22066;54.274;18.578;2023-04-24T02:40:34;27.10;;;13.60;;
35993;SDS011;22066;54.274;18.578;2023-04-24T02:43:00;26.70;;;14.80;;
35993;SDS011;22066;54.274;18.578;2023-04-24T02:45:26;24.75;;;12.98;;
35993;SDS011;22066;54.274;18.578;2023-04-24T02:47:52;31.90;;;14.60;;
35993;SDS011;22066;54.274;18.578;2023-04-24T02:50:18;25.70;;;13.45;;
35993;SDS011;22066;54.274;18.578;2023-04-24T02:52:44;27.80;;;12.82;;
35993;SDS011;22066;54.274;18.578;2023-04-24T02:55:10;24.23;;;12.63;;
35993;SDS011;22066;54.274;18.578;2023-04-24T02:57:36;22.73;;;12.63;;
35993;SDS011;22066;54.274;18.578;2023-04-24T03:00:02;26.08;;;13.20;;
35993;SDS011;22066;54.274;18.578;2023-04-24T03:02:28;24.17;;;12.90;;
35993;SDS011;22066;54.274;18.578;2023-04-24T03:04:54;20.88;;;11.20;;
35993;SDS011;22066;54.274;18.578;2023-04-24T03:07:22;22.02;;;12.07;;
35993;SDS011;22066;54.274;18.578;2023-04-24T03:09:49;22.23;;;11.82;;
35993;SDS011;22066;54.274;18.578;2023-04-24T03:12:15;20.90;;;11.65;;
35993;SDS011;22066;54.274;18.578;2023-04-24T03:14:42;23.38;;;13.32;;
35993;SDS011;22066;54.274;18.578;2023-04-24T03:17:08;22.23;;;12.52;;
35993;SDS011;22066;54.274;18.578;2023-04-24T03:19:35;24.27;;;12.50;;
35993;SDS011;22066;54.274;18.578;2023-04-24T03:22:03;25.77;;;14.18;;
35993;SDS011;22066;54.274;18.578;2023-04-24T03:24:29;21.55;;;11.38;;
35993;SDS011;22066;54.274;18.578;2023-04-24T03:26:56;21.40;;;11.45;;
35993;SDS011;22066;54.274;18.578;2023-04-24T03:29:22;22.98;;;12.30;;
35993;SDS011;22066;54.274;18.578;2023-04-24T03:31:48;22.98;;;12.20;;
35993;SDS011;22066;54.274;18.578;2023-04-24T03:34:14;23.70;;;11.50;;
35993;SDS011;22066;54.274;18.578;2023-04-24T03:36:40;24.90;;;12.77;;
35993;SDS011;22066;54.274;18.578;2023-04-24T03:39:06;22.90;;;12.38;;
35993;SDS011;22066;54.274;18.578;2023-04-24T03:41:32;24.42;;;12.27;;
35993;SDS011;22066;54.274;18.578;2023-04-24T03:43:58;29.80;;;12.80;;
35993;SDS011;22066;54.274;18.578;2023-04-24T03:46:25;25.77;;;12.15;;
35993;SDS011;22066;54.274;18.578;2023-04-24T03:48:51;23.40;;;12.45;;
35993;SDS011;22066;54.274;18.578;2023-04-24T03:51:17;21.33;;;11.07;;
35993;SDS011;22066;54.274;18.578;2023-04-24T03:53:43;23.33;;;12.18;;
35993;SDS011;22066;54.274;18.578;2023-04-24T03:56:09;23.10;;;12.10;;
35993;SDS011;22066;54.274;18.578;2023-04-24T03:58:35;19.42;;;11.18;;
35993;SDS011;22066;54.274;18.578;2023-04-24T04:01:01;21.85;;;11.63;;
35993;SDS011;22066;54.274;18.578;2023-04-24T04:03:27;21.77;;;10.80;;
35993;SDS011;22066;54.274;18.578;2023-04-24T04:05:53;28.88;;;10.77;;
35993;SDS011;22066;54.274;18.578;2023-04-24T04:08:19;25.58;;;14.25;;
35993;SDS011;22066;54.274;18.578;2023-04-24T04:10:45;29.77;;;15.52;;
35993;SDS011;22066;54.274;18.578;2023-04-24T04:13:11;38.22;;;19.15;;
35993;SDS011;22066;54.274;18.578;2023-04-24T04:15:37;31.13;;;14.15;;
35993;SDS011;22066;54.274;18.578;2023-04-24T04:18:16;29.75;;;13.80;;
35993;SDS011;22066;54.274;18.578;2023-04-24T04:20:42;24.40;;;10.98;;
35993;SDS011;22066;54.274;18.578;2023-04-24T04:23:08;50.17;;;13.98;;
35993;SDS011;22066;54.274;18.578;2023-04-24T04:25:34;32.30;;;12.05;;
35993;SDS011;22066;54.274;18.578;2023-04-24T04:28:00;27.10;;;11.90;;
35993;SDS011;22066;54.274;18.578;2023-04-24T04:30:27;23.40;;;10.95;;
35993;SDS011;22066;54.274;18.578;2023-04-24T04:32:57;24.38;;;12.05;;
35993;SDS011;22066;54.274;18.578;2023-04-24T04:35:23;21.23;;;11.40;;
35993;SDS011;22066;54.274;18.578;2023-04-24T04:37:49;20.13;;;10.63;;
35993;SDS011;22066;54.274;18.578;2023-04-24T04:40:16;23.08;;;10.60;;
35993;SDS011;22066;54.274;18.578;2023-04-24T04:42:42;28.30;;;11.95;;
35993;SDS011;22066;54.274;18.578;2023-04-24T04:45:11;21.45;;;12.25;;
35993;SDS011;22066;54.274;18.578;2023-04-24T04:47:37;23.05;;;11.05;;
35993;SDS011;22066;54.274;18.578;2023-04-24T04:50:04;24.08;;;13.07;;
35993;SDS011;22066;54.274;18.578;2023-04-24T04:52:30;23.23;;;11.82;;
35993;SDS011;22066;54.274;18.578;2023-04-24T04:54:56;25.33;;;11.55;;
35993;SDS011;22066;54.274;18.578;2023-04-24T04:57:23;26.50;;;12.95;;
35993;SDS011;22066;54.274;18.578;2023-04-24T04:59:49;28.02;;;12.65;;
35993;SDS011;22066;54.274;18.578;2023-04-24T05:02:15;28.92;;;12.38;;
35993;SDS011;22066;54.274;18.578;2023-04-24T05:04:41;27.33;;;12.43;;
35993;SDS011;22066;54.274;18.578;2023-04-24T05:07:07;27.33;;;12.95;;
35993;SDS011;22066;54.274;18.578;2023-04-24T05:09:33;28.70;;;12.55;;
35993;SDS011;22066;54.274;18.578;2023-04-24T05:11:59;27.90;;;12.18;;
35993;SDS011;22066;54.274;18.578;2023-04-24T05:14:26;26.02;;;12.77;;
35993;SDS011;22066;54.274;18.578;2023-04-24T05:16:52;28.70;;;13.10;;
35993;SDS011;22066;54.274;18.578;2023-04-24T05:19:18;28.13;;;13.45;;
35993;SDS011;22066;54.274;18.578;2023-04-24T05:21:44;21.45;;;11.38;;
35993;SDS011;22066;54.274;18.578;2023-04-24T05:24:10;19.55;;;10.75;;
35993;SDS011;22066;54.274;18.578;2023-04-24T05:26:36;21.60;;;11.07;;
35993;SDS011;22066;54.274;18.578;2023-04-24T05:29:02;19.73;;;10.43;;
35993;SDS011;22066;54.274;18.578;2023-04-24T05:31:29;18.92;;;10.27;;
35993;SDS011;22066;54.274;18.578;2023-04-24T05:33:55;27.60;;;10.57;;
35993;SDS011;22066;54.274;18.578;2023-04-24T05:36:21;22.40;;;11.13;;
35993;SDS011;22066;54.274;18.578;2023-04-24T05:38:47;26.02;;;12.43;;
35993;SDS011;22066;54.274;18.578;2023-04-24T05:41:13;22.98;;;10.98;;
35993;SDS011;22066;54.274;18.578;2023-04-24T05:43:40;89.93;;;35.58;;
35993;SDS011;22066;54.274;18.578;2023-04-24T05:46:06;23.77;;;13.00;;
35993;SDS011;22066;54.274;18.578;2023-04-24T05:48:32;22.10;;;11.88;;
35993;SDS011;22066;54.274;18.578;2023-04-24T05:50:58;19.80;;;9.32;;
35993;SDS011;22066;54.274;18.578;2023-04-24T05:53:24;18.10;;;10.57;;
35993;SDS011;22066;54.274;18.578;2023-04-24T05:55:50;24.42;;;10.48;;
35993;SDS011;22066;54.274;18.578;2023-04-24T05:58:16;18.20;;;9.98;;
35993;SDS011;22066;54.274;18.578;2023-04-24T06:00:42;20.23;;;10.20;;
35993;SDS011;22066;54.274;18.578;2023-04-24T06:03:09;22.05;;;11.20;;
35993;SDS011;22066;54.274;18.578;2023-04-24T06:05:35;47.65;;;14.35;;
35993;SDS011;22066;54.274;18.578;2023-04-24T06:08:01;21.50;;;10.65;;
35993;SDS011;22066;54.274;18.578;2023-04-24T06:10:27;21.60;;;10.07;;
35993;SDS011;22066;54.274;18.578;2023-04-24T06:12:53;17.60;;;9.30;;
35993;SDS011;22066;54.274;18.578;2023-04-24T06:15:25;15.65;;;8.63;;
35993;SDS011;22066;54.274;18.578;2023-04-24T06:17:51;16.50;;;9.23;;
35993;SDS011;22066;54.274;18.578;2023-04-24T06:20:17;18.95;;;9.63;;
35993;SDS011;22066;54.274;18.578;2023-04-24T06:22:43;51.58;;;11.82;;
35993;SDS011;22066;54.274;18.578;2023-04-24T06:25:09;36.05;;;9.90;;
35993;SDS011;22066;54.274;18.578;2023-04-24T06:27:35;21.67;;;10.05;;
35993;SDS011;22066;54.274;18.578;2023-04-24T06:30:01;18.17;;;8.75;;
35993;SDS011;22066;54.274;18.578;2023-04-24T06:32:27;15.50;;;8.65;;
35993;SDS011;22066;54.274;18.578;2023-04-24T06:34:55;16.98;;;8.77;;
35993;SDS011;22066;54.274;18.578;2023-04-24T06:37:21;20.00;;;8.77;;
35993;SDS011;22066;54.274;18.578;2023-04-24T06:39:47;21.23;;;8.75;;
35993;SDS011;22066;54.274;18.578;2023-04-24T06:42:13;16.88;;;8.80;;
35993;SDS011;22066;54.274;18.578;2023-04-24T06:44:39;17.95;;;9.50;;
35993;SDS011;22066;54.274;18.578;2023-04-24T06:47:09;19.13;;;9.00;;
35993;SDS011;22066;54.274;18.578;2023-04-24T06:49:36;18.45;;;10.77;;
35993;SDS011;22066;54.274;18.578;2023-04-24T06:52:02;23.00;;;11.52;;
35993;SDS011;22066;54.274;18.578;2023-04-24T06:54:29;21.42;;;12.77;;
35993;SDS011;22066;54.274;18.578;2023-04-24T06:56:55;20.85;;;11.27;;
35993;SDS011;22066;54.274;18.578;2023-04-24T06:59:22;19.25;;;10.00;;
35993;SDS011;22066;54.274;18.578;2023-04-24T07:01:49;20.63;;;10.32;;
35993;SDS011;22066;54.274;18.578;2023-04-24T07:04:16;17.63;;;9.95;;
35993;SDS011;22066;54.274;18.578;2023-04-24T07:06:42;19.48;;;10.68;;
35993;SDS011;22066;54.274;18.578;2023-04-24T07:09:08;20.08;;;10.52;;
35993;SDS011;22066;54.274;18.578;2023-04-24T07:11:34;21.83;;;11.55;;
35993;SDS011;22066;54.274;18.578;2023-04-24T07:16:28;20.10;;;10.15;;
35993;SDS011;22066;54.274;18.578;2023-04-24T07:18:55;25.95;;;13.32;;
35993;SDS011;22066;54.274;18.578;2023-04-24T07:21:21;26.70;;;13.02;;
35993;SDS011;22066;54.274;18.578;2023-04-24T07:23:47;25.13;;;12.50;;
35993;SDS011;22066;54.274;18.578;2023-04-24T07:26:13;23.30;;;12.10;;
35993;SDS011;22066;54.274;18.578;2023-04-24T07:28:40;24.38;;;12.95;;
35993;SDS011;22066;54.274;18.578;2023-04-24T07:31:06;29.83;;;14.50;;
35993;SDS011;22066;54.274;18.578;2023-04-24T07:33:32;23.02;;;13.82;;
35993;SDS011;22066;54.274;18.578;2023-04-24T07:35:58;25.63;;;12.55;;
35993;SDS011;22066;54.274;18.578;2023-04-24T07:38:24;21.33;;;10.48;;
35993;SDS011;22066;54.274;18.578;2023-04-24T07:40:51;16.67;;;10.05;;
35993;SDS011;22066;54.274;18.578;2023-04-24T07:43:17;21.40;;;9.98;;
35993;SDS011;22066;54.274;18.578;2023-04-24T07:45:43;19.52;;;10.63;;
35993;SDS011;22066;54.274;18.578;2023-04-24T07:48:09;20.23;;;10.68;;
35993;SDS011;22066;54.274;18.578;2023-04-24T07:50:35;17.58;;;9.20;;
35993;SDS011;22066;54.274;18.578;2023-04-24T07:53:02;19.38;;;10.27;;
35993;SDS011;22066;54.274;18.578;2023-04-24T07:55:28;18.75;;;9.73;;
35993;SDS011;22066;54.274;18.578;2023-04-24T07:57:54;22.38;;;11.55;;
35993;SDS011;22066;54.274;18.578;2023-04-24T08:00:20;18.55;;;11.15;;
35993;SDS011;22066;54.274;18.578;2023-04-24T08:02:46;20.13;;;11.27;;
35993;SDS011;22066;54.274;18.578;2023-04-24T08:05:12;19.50;;;11.35;;
35993;SDS011;22066;54.274;18.578;2023-04-24T08:07:38;18.45;;;10.60;;
35993;SDS011;22066;54.274;18.578;2023-04-24T08:10:04;17.95;;;10.23;;
35993;SDS011;22066;54.274;18.578;2023-04-24T08:12:31;19.73;;;10.60;;
35993;SDS011;22066;54.274;18.578;2023-04-24T08:14:57;18.70;;;11.05;;
35993;SDS011;22066;54.274;18.578;2023-04-24T08:17:23;19.65;;;10.35;;
35993;SDS011;22066;54.274;18.578;2023-04-24T08:19:50;21.90;;;11.40;;
35993;SDS011;22066;54.274;18.578;2023-04-24T08:22:18;20.30;;;11.00;;
35993;SDS011;22066;54.274;18.578;2023-04-24T08:24:44;20.92;;;10.70;;
35993;SDS011;22066;54.274;18.578;2023-04-24T08:27:10;21.15;;;11.43;;
35993;SDS011;22066;54.274;18.578;2023-04-24T08:29:36;20.35;;;12.00;;
35993;SDS011;22066;54.274;18.578;2023-04-24T08:32:02;19.33;;;11.05;;
35993;SDS011;22066;54.274;18.578;2023-04-24T08:34:28;15.95;;;9.93;;
35993;SDS011;22066;54.274;18.578;2023-04-24T08:36:54;24.02;;;11.18;;
35993;SDS011;22066;54.274;18.578;2023-04-24T08:39:20;22.55;;;11.60;;
35993;SDS011;22066;54.274;18.578;2023-04-24T08:41:46;17.15;;;10.57;;
35993;SDS011;22066;54.274;18.578;2023-04-24T08:44:14;21.23;;;11.70;;
35993;SDS011;22066;54.274;18.578;2023-04-24T08:46:42;18.77;;;10.55;;
35993;SDS011;22066;54.274;18.578;2023-04-24T08:49:08;19.52;;;11.45;;
35993;SDS011;22066;54.274;18.578;2023-04-24T08:51:36;18.38;;;11.38;;
35993;SDS011;22066;54.274;18.578;2023-04-24T08:54:02;22.95;;;12.02;;
35993;SDS011;22066;54.274;18.578;2023-04-24T08:56:29;17.85;;;10.45;;
35993;SDS011;22066;54.274;18.578;2023-04-24T08:58:56;17.33;;;11.07;;
35993;SDS011;22066;54.274;18.578;2023-04-24T09:01:22;19.00;;;11.30;;
35993;SDS011;22066;54.274;18.578;2023-04-24T09:03:49;20.17;;;11.55;;
35993;SDS011;22066;54.274;18.578;2023-04-24T09:06:16;22.02;;;12.57;;
35993;SDS011;22066;54.274;18.578;2023-04-24T09:08:43;24.70;;;14.63;;
35993;SDS011;22066;54.274;18.578;2023-04-24T09:11:10;21.35;;;13.05;;
35993;SDS011;22066;54.274;18.578;2023-04-24T09:13:37;19.48;;;12.55;;
35993;SDS011;22066;54.274;18.578;2023-04-24T09:16:03;24.30;;;13.35;;
35993;SDS011;22066;54.274;18.578;2023-04-24T09:18:29;25.08;;;14.35;;
35993;SDS011;22066;54.274;18.578;2023-04-24T09:23:29;26.13;;;14.30;;
35993;SDS011;22066;54.274;18.578;2023-04-24T09:25:55;21.15;;;13.43;;
35993;SDS011;22066;54.274;18.578;2023-04-24T09:28:25;29.65;;;14.68;;
35993;SDS011;22066;54.274;18.578;2023-04-24T09:31:05;23.60;;;14.32;;
35993;SDS011;22066;54.274;18.578;2023-04-24T09:33:32;23.38;;;12.18;;
35993;SDS011;22066;54.274;18.578;2023-04-24T09:35:58;28.27;;;14.32;;
35993;SDS011;22066;54.274;18.578;2023-04-24T09:38:35;25.27;;;14.35;;
35993;SDS011;22066;54.274;18.578;2023-04-24T09:41:02;20.60;;;13.50;;
35993;SDS011;22066;54.274;18.578;2023-04-24T09:43:29;22.90;;;14.13;;
35993;SDS011;22066;54.274;18.578;2023-04-24T09:45:56;24.55;;;13.10;;
35993;SDS011;22066;54.274;18.578;2023-04-24T09:48:35;24.75;;;14.50;;
35993;SDS011;22066;54.274;18.578;2023-04-24T09:51:02;25.77;;;13.65;;
35993;SDS011;22066;54.274;18.578;2023-04-24T09:53:29;24.58;;;13.27;;
35993;SDS011;22066;54.274;18.578;2023-04-24T09:55:55;23.10;;;14.13;;
35993;SDS011;22066;54.274;18.578;2023-04-24T09:58:24;21.70;;;14.10;;
35993;SDS011;22066;54.274;18.578;2023-04-24T10:00:53;22.58;;;13.70;;
35993;SDS011;22066;54.274;18.578;2023-04-24T10:05:46;27.73;;;13.52;;
35993;SDS011;22066;54.274;18.578;2023-04-24T10:08:12;28.48;;;14.52;;
35993;SDS011;22066;54.274;18.578;2023-04-24T10:10:43;23.83;;;13.75;;
35993;SDS011;22066;54.274;18.578;2023-04-24T10:13:09;26.70;;;14.90;;
35993;SDS011;22066;54.274;18.578;2023-04-24T10:15:36;20.08;;;12.90;;
35993;SDS011;22066;54.274;18.578;2023-04-24T10:18:02;19.88;;;11.95;;
35993;SDS011;22066;54.274;18.578;2023-04-24T10:20:30;22.50;;;13.13;;
35993;SDS011;22066;54.274;18.578;2023-04-24T10:22:56;20.42;;;12.73;;
35993;SDS011;22066;54.274;18.578;2023-04-24T10:25:23;20.55;;;12.95;;
35993;SDS011;22066;54.274;18.578;2023-04-24T10:27:50;21.52;;;13.52;;
35993;SDS011;22066;54.274;18.578;2023-04-24T10:30:17;23.15;;;13.00;;
35993;SDS011;22066;54.274;18.578;2023-04-24T10:32:43;20.77;;;12.93;;
35993;SDS011;22066;54.274;18.578;2023-04-24T10:35:12;21.60;;;13.07;;
35993;SDS011;22066;54.274;18.578;2023-04-24T10:37:45;26.98;;;13.77;;
35993;SDS011;22066;54.274;18.578;2023-04-24T10:40:12;19.63;;;13.23;;
35993;SDS011;22066;54.274;18.578;2023-04-24T10:42:41;21.13;;;13.23;;
35993;SDS011;22066;54.274;18.578;2023-04-24T10:45:15;23.55;;;14.18;;
35993;SDS011;22066;54.274;18.578;2023-04-24T10:47:43;21.17;;;12.75;;
35993;SDS011;22066;54.274;18.578;2023-04-24T10:50:16;20.98;;;13.52;;
35993;SDS011;22066;54.274;18.578;2023-04-24T10:52:48;17.70;;;13.00;;
35993;SDS011;22066;54.274;18.578;2023-04-24T10:58:04;59.80;;;13.68;;
35993;SDS011;22066;54.274;18.578;2023-04-24T11:00:30;17.77;;;10.90;;
35993;SDS011;22066;54.274;18.578;2023-04-24T11:02:56;19.55;;;12.25;;
35993;SDS011;22066;54.274;18.578;2023-04-24T11:05:23;21.85;;;11.80;;
35993;SDS011;22066;54.274;18.578;2023-04-24T11:08:15;16.73;;;11.88;;
35993;SDS011;22066;54.274;18.578;2023-04-24T11:10:45;19.95;;;12.23;;
35993;SDS011;22066;54.274;18.578;2023-04-24T11:13:15;15.38;;;10.82;;
35993;SDS011;22066;54.274;18.578;2023-04-24T11:15:42;19.92;;;12.50;;
35993;SDS011;22066;54.274;18.578;2023-04-24T11:18:14;17.50;;;11.98;;
35993;SDS011;22066;54.274;18.578;2023-04-24T11:20:44;16.05;;;11.02;;
35993;SDS011;22066;54.274;18.578;2023-04-24T11:23:11;18.95;;;12.02;;
35993;SDS011;22066;54.274;18.578;2023-04-24T11:28:04;16.95;;;12.18;;
35993;SDS011;22066;54.274;18.578;2023-04-24T11:30:31;18.70;;;11.63;;
35993;SDS011;22066;54.274;18.578;2023-04-24T11:33:02;13.00;;;8.05;;
35993;SDS011;22066;54.274;18.578;2023-04-24T11:35:29;7.93;;;5.68;;
35993;SDS011;22066;54.274;18.578;2023-04-24T11:37:55;9.77;;;5.90;;
35993;SDS011;22066;54.274;18.578;2023-04-24T11:40:22;9.60;;;5.20;;
35993;SDS011;22066;54.274;18.578;2023-04-24T11:42:52;8.43;;;5.07;;
35993;SDS011;22066;54.274;18.578;2023-04-24T11:45:24;10.43;;;5.93;;
35993;SDS011;22066;54.274;18.578;2023-04-24T11:47:51;10.77;;;5.00;;
35993;SDS011;22066;54.274;18.578;2023-04-24T11:50:17;9.65;;;5.03;;
35993;SDS011;22066;54.274;18.578;2023-04-24T11:52:45;9.95;;;6.05;;
35993;SDS011;22066;54.274;18.578;2023-04-24T11:57:43;8.23;;;4.95;;
35993;SDS011;22066;54.274;18.578;2023-04-24T12:00:15;8.23;;;4.90;;
35993;SDS011;22066;54.274;18.578;2023-04-24T12:02:41;9.55;;;5.40;;
35993;SDS011;22066;54.274;18.578;2023-04-24T12:05:07;8.35;;;5.00;;
35993;SDS011;22066;54.274;18.578;2023-04-24T12:07:42;7.43;;;4.30;;
35993;SDS011;22066;54.274;18.578;2023-04-24T12:10:08;9.32;;;5.00;;
35993;SDS011;22066;54.274;18.578;2023-04-24T12:12:35;10.27;;;5.90;;
35993;SDS011;22066;54.274;18.578;2023-04-24T12:15:01;8.85;;;4.28;;
35993;SDS011;22066;54.274;18.578;2023-04-24T12:17:28;8.43;;;4.63;;
35993;SDS011;22066;54.274;18.578;2023-04-24T12:20:04;6.28;;;3.70;;
35993;SDS011;22066;54.274;18.578;2023-04-24T12:22:50;6.88;;;4.35;;
35993;SDS011;22066;54.274;18.578;2023-04-24T12:25:18;10.52;;;3.78;;
35993;SDS011;22066;54.274;18.578;2023-04-24T12:27:45;6.65;;;3.85;;
35993;SDS011;22066;54.274;18.578;2023-04-24T12:30:12;7.10;;;3.85;;
35993;SDS011;22066;54.274;18.578;2023-04-24T12:32:46;5.30;;;3.13;;
35993;SDS011;22066;54.274;18.578;2023-04-24T12:35:13;6.38;;;3.70;;
35993;SDS011;22066;54.274;18.578;2023-04-24T12:37:50;7.90;;;3.00;;
35993;SDS011;22066;54.274;18.578;2023-04-24T12:40:20;7.78;;;3.78;;
35993;SDS011;22066;54.274;18.578;2023-04-24T12:45:13;6.97;;;3.50;;
35993;SDS011;22066;54.274;18.578;2023-04-24T12:47:40;7.85;;;3.28;;
35993;SDS011;22066;54.274;18.578;2023-04-24T12:50:07;7.22;;;3.53;;
35993;SDS011;22066;54.274;18.578;2023-04-24T12:52:33;6.20;;;3.80;;
35993;SDS011;22066;54.274;18.578;2023-04-24T12:54:59;7.47;;;4.20;;
35993;SDS011;22066;54.274;18.578;2023-04-24T12:57:26;11.60;;;4.00;;
35993;SDS011;22066;54.274;18.578;2023-04-24T12:59:53;5.60;;;3.38;;
35993;SDS011;22066;54.274;18.578;2023-04-24T13:02:20;7.35;;;3.13;;
35993;SDS011;22066;54.274;18.578;2023-04-24T13:04:47;5.55;;;3.58;;
35993;SDS011;22066;54.274;18.578;2023-04-24T13:07:14;7.60;;;4.32;;
35993;SDS011;22066;54.274;18.578;2023-04-24T13:09:40;9.23;;;4.05;;
35993;SDS011;22066;54.274;18.578;2023-04-24T13:12:07;5.05;;;3.10;;
35993;SDS011;22066;54.274;18.578;2023-04-24T13:14:33;7.05;;;3.55;;
35993;SDS011;22066;54.274;18.578;2023-04-24T13:16:59;7.43;;;3.85;;
35993;SDS011;22066;54.274;18.578;2023-04-24T13:19:25;6.90;;;4.22;;
35993;SDS011;22066;54.274;18.578;2023-04-24T13:21:52;5.95;;;3.75;;
35993;SDS011;22066;54.274;18.578;2023-04-24T13:24:18;11.93;;;4.18;;
35993;SDS011;22066;54.274;18.578;2023-04-24T13:26:45;5.07;;;3.30;;
35993;SDS011;22066;54.274;18.578;2023-04-24T13:29:11;7.75;;;3.67;;
35993;SDS011;22066;54.274;18.578;2023-04-24T13:31:37;16.80;;;4.18;;
35993;SDS011;22066;54.274;18.578;2023-04-24T13:34:03;16.13;;;3.88;;
35993;SDS011;22066;54.274;18.578;2023-04-24T13:36:29;6.10;;;3.22;;
35993;SDS011;22066;54.274;18.578;2023-04-24T13:38:56;6.70;;;3.90;;
35993;SDS011;22066;54.274;18.578;2023-04-24T13:41:22;9.43;;;3.67;;
35993;SDS011;22066;54.274;18.578;2023-04-24T13:43:48;6.43;;;2.97;;
35993;SDS011;22066;54.274;18.578;2023-04-24T13:46:15;19.75;;;4.20;;
35993;SDS011;22066;54.274;18.578;2023-04-24T13:48:42;16.58;;;4.47;;
35993;SDS011;22066;54.274;18.578;2023-04-24T13:51:08;7.40;;;4.10;;
35993;SDS011;22066;54.274;18.578;2023-04-24T13:53:34;7.97;;;3.75;;
35993;SDS011;22066;54.274;18.578;2023-04-24T13:56:03;7.03;;;4.05;;
35993;SDS011;22066;54.274;18.578;2023-04-24T13:58:29;7.63;;;3.70;;
35993;SDS011;22066;54.274;18.578;2023-04-24T14:00:55;9.02;;;3.72;;
35993;SDS011;22066;54.274;18.578;2023-04-24T14:03:21;8.48;;;3.75;;
35993;SDS011;22066;54.274;18.578;2023-04-24T14:05:48;7.25;;;4.18;;
35993;SDS011;22066;54.274;18.578;2023-04-24T14:08:14;6.07;;;4.10;;
35993;SDS011;22066;54.274;18.578;2023-04-24T14:10:40;7.60;;;4.10;;
35993;SDS011;22066;54.274;18.578;2023-04-24T14:13:06;7.38;;;4.10;;
35993;SDS011;22066;54.274;18.578;2023-04-24T14:15:32;6.65;;;4.22;;
35993;SDS011;22066;54.274;18.578;2023-04-24T14:17:58;7.43;;;4.15;;
35993;SDS011;22066;54.274;18.578;2023-04-24T14:20:24;5.85;;;3.30;;
35993;SDS011;22066;54.274;18.578;2023-04-24T14:22:50;7.10;;;4.28;;
35993;SDS011;22066;54.274;18.578;2023-04-24T14:25:16;7.68;;;3.85;;
35993;SDS011;22066;54.274;18.578;2023-04-24T14:27:42;9.25;;;4.07;;
35993;SDS011;22066;54.274;18.578;2023-04-24T14:30:09;7.60;;;4.00;;
35993;SDS011;22066;54.274;18.578;2023-04-24T14:32:35;25.65;;;5.50;;